Time;durP1;ratioP1;P1;durP2;ratioP2;P2;SDS_P1;SDS_P2;PMS_P1;PMS_P2;Temp;Humidity;BMP_temperature;BMP_pressure;BME280_temperature;BME280_humidity;BME280_pressure;Samples;Min_cycle;Max_cycle;Signal;HPM_P1;HPM_P2
2022/10/22 00:00:54;;;;;;;12.98;6.88;;;13.60;99.90;;;;;;5085222;28;20075;-70
2022/10/22 00:03:20;;;;;;;13.68;7.72;;;13.60;99.90;;;;;;5084607;28;20401;-70
2022/10/22 00:05:47;;;;;;;14.63;7.65;;;13.50;99.90;;;;;;5074989;28;20049;-70
2022/10/22 00:08:13;;;;;;;17.23;7.38;;;13.60;99.90;;;;;;5046698;28;20456;-70
2022/10/22 00:10:39;;;;;;;12.65;7.10;;;13.60;99.90;;;;;;5065121;28;20045;-70
2022/10/22 00:13:05;;;;;;;13.88;6.88;;;13.50;99.90;;;;;;5047713;28;20106;-70
2022/10/22 00:15:30;;;;;;;14.30;7.32;;;13.50;99.90;;;;;;5048828;28;20044;-70
2022/10/22 00:17:56;;;;;;;14.73;6.93;;;13.50;99.90;;;;;;5064464;28;20463;-71
2022/10/22 00:20:22;;;;;;;12.98;7.07;;;13.40;99.90;;;;;;5046290;28;20041;-70
2022/10/22 00:22:48;;;;;;;13.02;7.20;;;13.40;99.90;;;;;;5065215;28;20048;-70
2022/10/22 00:25:14;;;;;;;10.98;6.65;;;13.40;99.90;;;;;;5062326;28;20048;-71
2022/10/22 00:27:40;;;;;;;13.30;7.30;;;13.40;99.90;;;;;;5064107;28;20040;-71
2022/10/22 00:30:06;;;;;;;10.75;6.68;;;13.40;99.90;;;;;;5035309;28;20056;-70
2022/10/22 00:32:32;;;;;;;11.93;6.43;;;13.40;99.90;;;;;;5049279;28;20119;-70
2022/10/22 00:34:57;;;;;;;10.73;6.60;;;13.30;99.90;;;;;;5053135;28;20813;-71
2022/10/22 00:37:23;;;;;;;11.27;6.63;;;13.30;99.90;;;;;;5060399;28;20036;-71
2022/10/22 00:39:49;;;;;;;11.50;6.53;;;13.30;99.90;;;;;;5063048;28;20511;-70
2022/10/22 00:42:24;;;;;;;13.43;6.97;;;13.30;99.90;;;;;;5060138;28;20064;-71
2022/10/22 00:45:08;;;;;;;13.85;7.03;;;13.20;99.90;;;;;;5047770;28;20447;-70
2022/10/22 00:47:36;;;;;;;12.02;7.22;;;13.30;99.90;;;;;;5065600;28;20041;-70
2022/10/22 00:50:09;;;;;;;13.10;6.90;;;13.20;99.90;;;;;;5065894;28;20040;-70
2022/10/22 00:52:36;;;;;;;9.48;6.20;;;13.20;99.90;;;;;;5070209;28;20057;-70
2022/10/22 00:55:01;;;;;;;11.27;6.57;;;13.20;99.90;;;;;;5062654;28;20040;-70
2022/10/22 00:57:28;;;;;;;13.70;7.03;;;13.20;99.90;;;;;;5063868;28;20125;-70
2022/10/22 00:59:55;;;;;;;12.82;6.93;;;13.20;99.90;;;;;;5066802;28;20119;-70
2022/10/22 01:02:21;;;;;;;14.63;6.68;;;13.10;99.90;;;;;;5065081;28;20120;-70
2022/10/22 01:04:47;;;;;;;12.45;6.95;;;13.10;99.90;;;;;;5068729;28;20090;-70
2022/10/22 01:07:20;;;;;;;15.65;7.07;;;13.10;99.90;;;;;;5065017;28;20036;-71
2022/10/22 01:10:30;;;;;;;14.73;7.28;;;13.10;99.90;;;;;;5046167;28;20032;-71
2022/10/22 01:13:34;;;;;;;12.15;6.80;;;13.10;99.90;;;;;;5044077;28;20036;-70
2022/10/22 01:16:21;;;;;;;12.43;7.30;;;13.10;99.90;;;;;;5063808;28;20052;-71
2022/10/22 01:19:05;;;;;;;9.70;5.95;;;13.10;99.90;;;;;;5067073;28;20071;-71
2022/10/22 01:21:37;;;;;;;14.35;7.38;;;13.00;99.90;;;;;;5068220;28;20040;-71
2022/10/22 01:24:08;;;;;;;13.50;7.10;;;13.10;99.90;;;;;;5065179;28;20044;-71
2022/10/22 01:26:49;;;;;;;16.02;8.68;;;13.10;99.90;;;;;;5064114;28;20037;-71
2022/10/22 01:29:21;;;;;;;10.55;6.75;;;13.10;99.90;;;;;;5065663;28;20059;-71
2022/10/22 01:32:00;;;;;;;14.25;7.03;;;13.00;99.90;;;;;;5063072;28;20094;-71
2022/10/22 01:34:28;;;;;;;14.68;6.80;;;13.00;99.90;;;;;;5062098;28;20064;-71
2022/10/22 01:36:56;;;;;;;11.30;6.68;;;13.00;99.90;;;;;;5087966;28;20047;-68
2022/10/22 01:39:23;;;;;;;11.88;6.18;;;13.00;99.90;;;;;;5065982;28;20535;-70
2022/10/22 01:41:49;;;;;;;12.00;6.93;;;13.00;99.90;;;;;;5067587;28;20071;-71
2022/10/22 01:44:28;;;;;;;10.98;5.80;;;13.00;99.90;;;;;;5070449;28;20075;-71
2022/10/22 01:47:14;;;;;;;16.15;6.40;;;13.10;99.90;;;;;;5062712;28;20040;-71
2022/10/22 01:50:18;;;;;;;12.50;6.47;;;13.10;99.90;;;;;;5066130;28;20115;-70
2022/10/22 01:52:55;;;;;;;15.43;6.65;;;13.00;99.90;;;;;;5049762;28;20044;-71
2022/10/22 01:55:35;;;;;;;11.27;5.90;;;13.10;99.90;;;;;;5064697;28;20086;-70
2022/10/22 01:58:33;;;;;;;13.25;6.43;;;13.00;99.90;;;;;;5047815;28;20041;-70
2022/10/22 02:01:18;;;;;;;9.35;6.15;;;13.10;99.90;;;;;;5056524;28;20102;-71
2022/10/22 02:04:19;;;;;;;13.07;6.60;;;13.00;99.90;;;;;;5065508;28;20524;-71
2022/10/22 02:06:46;;;;;;;12.57;6.22;;;13.10;99.90;;;;;;5063421;28;20052;-71
2022/10/22 02:09:16;;;;;;;12.82;6.38;;;13.00;99.90;;;;;;5068484;28;20040;-70
2022/10/22 02:11:43;;;;;;;13.23;6.43;;;13.00;99.90;;;;;;5064488;28;20115;-70
2022/10/22 02:14:11;;;;;;;12.77;6.63;;;13.00;99.90;;;;;;5091653;28;20048;-70
2022/10/22 02:16:43;;;;;;;12.40;6.40;;;13.00;99.90;;;;;;5064762;28;20446;-71
2022/10/22 02:19:39;;;;;;;13.75;6.43;;;13.00;99.90;;;;;;5065249;28;20045;-71
2022/10/22 02:22:05;;;;;;;12.20;6.40;;;13.00;99.90;;;;;;5063272;28;20087;-70
2022/10/22 02:24:31;;;;;;;13.27;6.47;;;13.10;99.90;;;;;;5064155;28;20060;-70
2022/10/22 02:27:16;;;;;;;12.68;6.07;;;13.00;99.90;;;;;;5067955;28;20044;-70
2022/10/22 02:30:01;;;;;;;15.90;6.68;;;13.00;99.90;;;;;;5061471;28;20461;-71
2022/10/22 02:32:33;;;;;;;13.68;6.90;;;13.00;99.90;;;;;;5065432;28;20054;-70
2022/10/22 02:35:00;;;;;;;12.85;6.47;;;13.00;99.90;;;;;;5046475;28;20052;-70
2022/10/22 02:37:27;;;;;;;11.60;7.00;;;13.00;99.90;;;;;;5091688;28;20048;-70
2022/10/22 02:39:55;;;;;;;15.90;7.45;;;13.00;99.90;;;;;;5062902;28;20054;-67
2022/10/22 02:42:23;;;;;;;15.20;7.03;;;13.00;99.90;;;;;;5064367;28;20051;-70
2022/10/22 02:44:48;;;;;;;17.05;6.97;;;13.00;99.90;;;;;;5064621;28;20546;-70
2022/10/22 02:47:14;;;;;;;13.18;6.45;;;13.00;99.90;;;;;;5065101;28;20036;-70
2022/10/22 02:49:40;;;;;;;19.98;7.00;;;13.00;99.90;;;;;;5064585;28;20037;-70
2022/10/22 02:52:05;;;;;;;15.60;7.97;;;13.10;99.90;;;;;;5048140;28;20072;-70
2022/10/22 02:54:31;;;;;;;12.48;6.63;;;13.10;99.90;;;;;;5066714;28;20048;-70
2022/10/22 02:56:57;;;;;;;10.15;6.28;;;13.10;99.90;;;;;;5064726;28;20098;-70
2022/10/22 02:59:23;;;;;;;13.77;6.60;;;13.10;99.90;;;;;;5060623;28;20051;-71
2022/10/22 03:01:48;;;;;;;13.05;6.90;;;13.00;99.90;;;;;;5061450;28;20043;-70
2022/10/22 03:04:14;;;;;;;16.45;6.93;;;13.00;99.90;;;;;;5061092;28;20390;-70
2022/10/22 03:06:42;;;;;;;15.00;6.60;;;13.00;99.90;;;;;;5062299;28;20037;-70
2022/10/22 03:09:08;;;;;;;15.00;6.80;;;13.10;99.90;;;;;;5061618;28;20044;-70
2022/10/22 03:11:34;;;;;;;15.23;7.38;;;13.10;99.90;;;;;;5063812;28;20099;-70
2022/10/22 03:14:00;;;;;;;15.30;7.65;;;13.10;99.90;;;;;;5064362;28;20139;-70
2022/10/22 03:16:26;;;;;;;14.65;6.88;;;13.10;99.90;;;;;;5064971;28;20135;-70
2022/10/22 03:18:52;;;;;;;12.25;6.63;;;13.10;99.90;;;;;;5065621;28;20041;-69
2022/10/22 03:21:27;;;;;;;13.80;6.30;;;13.10;99.90;;;;;;5064431;28;20590;-70
2022/10/22 03:23:53;;;;;;;14.65;6.57;;;13.10;99.90;;;;;;5079081;28;20053;-70
2022/10/22 03:26:19;;;;;;;13.18;7.00;;;13.00;99.90;;;;;;5065523;28;20071;-70
2022/10/22 03:28:47;;;;;;;18.80;7.85;;;13.00;99.90;;;;;;5065438;28;20055;-70
2022/10/22 03:31:13;;;;;;;14.75;7.20;;;13.00;99.90;;;;;;5086993;28;21131;-70
2022/10/22 03:33:39;;;;;;;13.20;6.50;;;13.00;99.90;;;;;;5064898;28;20237;-70
2022/10/22 03:36:06;;;;;;;12.00;6.95;;;13.00;99.90;;;;;;5065632;28;20037;-70
2022/10/22 03:38:34;;;;;;;14.48;6.85;;;12.90;99.90;;;;;;5064702;28;20037;-70
2022/10/22 03:41:00;;;;;;;16.90;6.63;;;13.00;99.90;;;;;;5062661;28;20405;-70
2022/10/22 03:43:26;;;;;;;15.40;6.88;;;12.90;99.90;;;;;;5065308;28;20123;-69
2022/10/22 03:45:52;;;;;;;13.07;6.88;;;13.00;99.90;;;;;;5065774;28;20036;-69
2022/10/22 03:48:18;;;;;;;14.60;7.15;;;12.90;99.90;;;;;;5064443;28;20113;-70
2022/10/22 03:50:43;;;;;;;16.88;6.90;;;12.90;99.90;;;;;;5065026;28;20051;-70
2022/10/22 03:53:09;;;;;;;15.63;7.65;;;12.90;99.90;;;;;;5047559;28;20047;-69
2022/10/22 03:55:37;;;;;;;16.50;7.50;;;12.90;99.90;;;;;;5049381;28;20040;-70
2022/10/22 03:58:03;;;;;;;12.75;7.07;;;12.80;99.90;;;;;;5063908;28;20047;-70
2022/10/22 04:00:29;;;;;;;12.48;6.93;;;12.80;99.90;;;;;;5065908;28;20093;-69
2022/10/22 04:02:56;;;;;;;13.65;7.90;;;12.80;99.90;;;;;;5065960;28;20062;-70
2022/10/22 04:05:22;;;;;;;15.32;7.88;;;12.80;99.90;;;;;;5064837;28;20439;-70
2022/10/22 04:07:48;;;;;;;17.73;7.18;;;12.70;99.90;;;;;;5065695;28;20044;-70
2022/10/22 04:10:14;;;;;;;14.80;7.43;;;12.80;99.90;;;;;;5065840;28;20738;-70
2022/10/22 04:12:39;;;;;;;12.63;7.70;;;12.80;99.90;;;;;;5064869;28;20049;-70
2022/10/22 04:15:06;;;;;;;10.93;6.93;;;12.70;99.90;;;;;;5061150;28;20561;-70
2022/10/22 04:17:36;;;;;;;19.25;7.72;;;12.70;99.90;;;;;;5051454;28;20041;-70
2022/10/22 04:20:02;;;;;;;14.48;8.23;;;12.70;99.90;;;;;;5068057;28;20041;-70
2022/10/22 04:22:28;;;;;;;17.40;8.52;;;12.70;99.90;;;;;;5070939;28;20386;-70
2022/10/22 04:24:55;;;;;;;16.27;7.93;;;12.70;99.90;;;;;;5070810;28;20497;-70
2022/10/22 04:27:20;;;;;;;16.10;7.10;;;12.70;99.90;;;;;;5069191;28;20490;-70
2022/10/22 04:29:46;;;;;;;16.20;7.55;;;12.60;99.90;;;;;;5068951;28;20052;-70
2022/10/22 04:32:12;;;;;;;13.38;7.47;;;12.60;99.90;;;;;;5068169;28;20075;-69
2022/10/22 04:34:38;;;;;;;15.45;8.35;;;12.70;99.90;;;;;;5069727;28;20048;-69
2022/10/22 04:37:03;;;;;;;17.83;8.68;;;12.60;99.90;;;;;;5068695;28;20036;-69
2022/10/22 04:39:29;;;;;;;13.48;8.15;;;12.60;99.90;;;;;;5069383;28;20525;-69
2022/10/22 04:41:55;;;;;;;12.55;7.50;;;12.60;99.90;;;;;;5069792;28;20041;-69
2022/10/22 04:44:21;;;;;;;19.65;9.10;;;12.60;99.90;;;;;;5051650;28;20056;-70
2022/10/22 04:46:47;;;;;;;13.70;7.90;;;12.60;99.90;;;;;;5069151;28;20390;-69
2022/10/22 04:49:13;;;;;;;16.25;8.48;;;12.60;99.90;;;;;;5069624;28;20041;-69
2022/10/22 04:51:39;;;;;;;15.98;7.75;;;12.60;99.90;;;;;;5069025;28;20037;-69
2022/10/22 04:54:04;;;;;;;15.93;8.18;;;12.60;99.90;;;;;;5068407;28;20055;-70
2022/10/22 04:56:31;;;;;;;18.38;8.38;;;12.60;99.90;;;;;;5069638;28;20474;-70
2022/10/22 04:59:00;;;;;;;15.48;8.13;;;12.60;99.90;;;;;;5069340;28;20041;-69
2022/10/22 05:01:31;;;;;;;15.27;8.43;;;12.60;99.90;;;;;;5084585;28;20047;-70
2022/10/22 05:03:58;;;;;;;;;;;12.60;99.90;;;;;;5072682;28;20044;-69
2022/10/22 05:06:25;;;;;;;17.08;8.38;;;12.60;99.90;;;;;;5072353;28;20313;-70
2022/10/22 05:08:57;;;;;;;14.18;8.32;;;12.60;99.90;;;;;;5068296;28;20052;-70
2022/10/22 05:11:27;;;;;;;16.48;7.53;;;12.50;99.90;;;;;;5069266;28;20132;-70
2022/10/22 05:13:57;;;;;;;11.30;7.78;;;12.60;99.90;;;;;;5068640;28;20040;-69
2022/10/22 05:16:24;;;;;;;18.92;7.95;;;12.60;99.90;;;;;;5081453;28;20044;-70
2022/10/22 05:18:50;;;;;;;18.45;7.85;;;12.50;99.90;;;;;;5080376;28;20049;-70
2022/10/22 05:21:18;;;;;;;12.75;7.63;;;12.60;99.90;;;;;;5068948;28;20570;-70
2022/10/22 05:23:45;;;;;;;14.85;7.95;;;12.60;99.90;;;;;;5068165;28;20406;-70
2022/10/22 05:26:12;;;;;;;15.50;8.25;;;12.50;99.90;;;;;;5070298;28;20314;-70
2022/10/22 05:28:39;;;;;;;15.10;8.38;;;12.50;99.90;;;;;;5087253;28;20054;-70
2022/10/22 05:31:07;;;;;;;15.10;8.10;;;12.60;99.90;;;;;;5088803;28;20444;-70
2022/10/22 05:33:33;;;;;;;21.83;8.60;;;12.50;99.90;;;;;;5088424;28;20158;-70
2022/10/22 05:36:00;;;;;;;14.95;7.65;;;12.50;99.90;;;;;;5077295;28;20053;-70
2022/10/22 05:38:26;;;;;;;14.55;8.30;;;12.50;99.90;;;;;;5067161;28;20509;-70
2022/10/22 05:41:03;;;;;;;16.95;8.00;;;12.50;99.90;;;;;;5051233;28;20044;-70
2022/10/22 05:43:29;;;;;;;16.42;8.10;;;12.50;99.90;;;;;;5049245;28;20049;-70
2022/10/22 05:45:55;;;;;;;18.27;8.45;;;12.50;99.90;;;;;;5069285;28;20071;-70
2022/10/22 05:48:22;;;;;;;16.75;8.18;;;12.50;99.90;;;;;;5068162;28;20055;-70
2022/10/22 05:50:49;;;;;;;17.08;8.27;;;12.50;99.90;;;;;;5067190;28;20059;-70
2022/10/22 05:53:17;;;;;;;15.82;8.35;;;12.50;99.90;;;;;;5068613;28;20089;-70
2022/10/22 05:55:43;;;;;;;17.85;7.53;;;12.50;99.90;;;;;;5052708;28;20105;-70
2022/10/22 05:58:11;;;;;;;15.48;7.85;;;12.50;99.90;;;;;;5067279;28;20094;-70
2022/10/22 06:00:37;;;;;;;14.77;8.13;;;12.60;99.90;;;;;;5067706;28;20430;-70
2022/10/22 06:03:03;;;;;;;13.48;7.53;;;12.60;99.90;;;;;;5065813;28;20139;-70
2022/10/22 06:05:28;;;;;;;16.05;8.10;;;12.60;99.90;;;;;;5067079;28;20044;-70
2022/10/22 06:07:56;;;;;;;18.05;7.88;;;12.60;99.90;;;;;;5069004;28;20055;-70
2022/10/22 06:10:22;;;;;;;14.90;7.80;;;12.60;99.90;;;;;;5063394;28;20409;-70
2022/10/22 06:12:48;;;;;;;16.92;7.65;;;12.60;99.90;;;;;;5062333;28;20045;-70
2022/10/22 06:15:16;;;;;;;16.60;8.20;;;12.60;99.90;;;;;;5057272;28;20045;-70
2022/10/22 06:17:46;;;;;;;15.18;7.45;;;12.60;99.90;;;;;;5068361;28;20044;-70
2022/10/22 06:20:12;;;;;;;14.88;7.97;;;12.60;99.90;;;;;;5046216;28;20048;-70
2022/10/22 06:22:38;;;;;;;11.73;6.93;;;12.60;99.90;;;;;;5067997;28;20059;-70
2022/10/22 06:25:05;;;;;;;16.08;8.38;;;12.60;99.90;;;;;;5068138;28;20036;-70
2022/10/22 06:27:30;;;;;;;13.85;7.97;;;12.60;99.90;;;;;;5068112;28;20189;-70
2022/10/22 06:29:56;;;;;;;16.40;7.43;;;12.60;99.90;;;;;;5067118;28;20131;-71
2022/10/22 06:32:22;;;;;;;18.92;7.78;;;12.60;99.90;;;;;;5067976;28;20422;-70
2022/10/22 06:34:49;;;;;;;15.25;7.82;;;12.60;99.90;;;;;;5066655;28;20048;-70
2022/10/22 06:37:15;;;;;;;15.20;8.35;;;12.60;99.90;;;;;;5067674;28;20387;-70
2022/10/22 06:39:41;;;;;;;18.90;7.90;;;12.60;99.90;;;;;;5050146;28;20064;-71
2022/10/22 06:42:06;;;;;;;16.20;7.70;;;12.60;99.90;;;;;;5047122;28;20037;-71
2022/10/22 06:44:32;;;;;;;16.27;7.80;;;12.60;99.90;;;;;;5047905;28;20115;-71
2022/10/22 06:46:58;;;;;;;16.95;8.70;;;12.60;99.90;;;;;;5054902;28;20044;-70
2022/10/22 06:49:24;;;;;;;14.07;8.10;;;12.60;99.90;;;;;;5054504;28;20098;-71
2022/10/22 06:51:54;;;;;;;16.67;7.93;;;12.70;99.90;;;;;;5067256;28;20055;-70
2022/10/22 06:54:20;;;;;;;18.08;8.10;;;12.70;99.90;;;;;;5065283;28;20048;-71
2022/10/22 06:56:46;;;;;;;17.52;8.20;;;12.70;99.90;;;;;;5050435;28;20127;-70
2022/10/22 06:59:12;;;;;;;14.70;7.90;;;12.70;99.90;;;;;;5065747;28;20134;-71
2022/10/22 07:01:38;;;;;;;20.75;8.73;;;13.00;99.90;;;;;;5060800;28;20056;-71
2022/10/22 07:04:05;;;;;;;15.65;8.00;;;12.70;99.90;;;;;;5068016;28;20047;-70
2022/10/22 07:06:31;;;;;;;15.35;7.65;;;12.80;99.90;;;;;;5067110;28;20040;-70
2022/10/22 07:08:58;;;;;;;19.25;7.82;;;12.80;99.90;;;;;;5066182;28;20052;-70
2022/10/22 07:11:26;;;;;;;14.73;7.50;;;12.80;99.90;;;;;;5040326;28;20504;-70
2022/10/22 07:13:57;;;;;;;12.77;7.28;;;12.80;99.90;;;;;;5066094;28;20391;-70
2022/10/22 07:16:23;;;;;;;17.25;7.63;;;12.90;99.90;;;;;;5046420;28;20044;-70
2022/10/22 07:18:49;;;;;;;13.90;8.77;;;12.90;99.90;;;;;;5068701;28;20048;-70
2022/10/22 07:21:20;;;;;;;15.45;7.93;;;13.00;99.90;;;;;;5086018;28;20040;-70
2022/10/22 07:23:46;;;;;;;;;;;13.00;99.90;;;;;;5086442;28;20139;-70
2022/10/22 07:26:13;;;;;;;15.52;7.45;;;13.20;99.90;;;;;;5069512;28;20027;-70
2022/10/22 07:28:40;;;;;;;17.25;7.60;;;13.00;99.90;;;;;;5085971;28;20056;-70
2022/10/22 07:31:10;;;;;;;17.45;7.40;;;13.00;99.90;;;;;;5085452;28;20095;-70
2022/10/22 07:33:37;;;;;;;18.20;7.32;;;13.10;99.90;;;;;;5084247;28;20119;-70
2022/10/22 07:36:05;;;;;;;14.30;7.50;;;12.90;99.90;;;;;;5061266;28;20037;-71
2022/10/22 07:38:32;;;;;;;20.08;7.78;;;13.10;99.90;;;;;;5061535;28;20366;-72
2022/10/22 07:40:58;;;;;;;19.27;7.78;;;13.10;99.90;;;;;;5061343;28;20032;-70
2022/10/22 07:43:24;;;;;;;17.42;7.20;;;13.20;99.90;;;;;;5060687;28;20508;-70
2022/10/22 07:45:50;;;;;;;18.40;6.82;;;13.20;99.90;;;;;;5049747;28;20041;-70
2022/10/22 07:48:16;;;;;;;16.02;7.13;;;13.20;99.90;;;;;;5049345;28;21929;-70
2022/10/22 07:50:42;;;;;;;16.27;7.25;;;13.20;99.90;;;;;;5050118;28;20098;-70
2022/10/22 07:53:08;;;;;;;18.10;6.53;;;13.20;99.90;;;;;;5068506;28;20048;-70
2022/10/22 07:55:35;;;;;;;16.02;6.68;;;13.20;99.90;;;;;;5064121;28;20461;-70
2022/10/22 07:58:01;;;;;;;17.38;6.18;;;13.30;99.90;;;;;;5065375;28;20042;-70
2022/10/22 08:00:26;;;;;;;17.13;6.72;;;13.30;99.90;;;;;;5062462;28;20755;-70
2022/10/22 08:02:52;;;;;;;17.88;6.70;;;13.20;99.90;;;;;;5066052;28;20102;-69
2022/10/22 08:05:18;;;;;;;19.85;6.65;;;13.30;99.90;;;;;;5066619;28;20072;-71
2022/10/22 08:07:44;;;;;;;17.95;6.70;;;13.30;99.90;;;;;;5065965;28;20044;-70
2022/10/22 08:10:10;;;;;;;19.45;6.43;;;13.40;99.90;;;;;;5049678;28;20094;-70
2022/10/22 08:12:36;;;;;;;14.45;6.00;;;13.30;99.90;;;;;;5066282;28;20044;-70
2022/10/22 08:15:03;;;;;;;19.88;6.55;;;13.30;99.90;;;;;;5066623;28;20039;-70
2022/10/22 08:17:28;;;;;;;11.63;6.35;;;13.30;99.90;;;;;;5062388;28;20425;-70
2022/10/22 08:19:54;;;;;;;17.33;7.40;;;13.40;99.90;;;;;;5064078;28;20123;-70
2022/10/22 08:22:20;;;;;;;18.63;6.38;;;13.50;99.90;;;;;;5058553;28;20041;-70
2022/10/22 08:24:45;;;;;;;14.85;6.07;;;13.50;99.90;;;;;;5061617;28;20091;-70
2022/10/22 08:27:11;;;;;;;13.73;5.50;;;13.50;99.90;;;;;;5064698;28;20071;-71
2022/10/22 08:29:37;;;;;;;17.15;6.97;;;13.60;99.90;;;;;;5065000;28;20450;-70
2022/10/22 08:32:03;;;;;;;15.43;5.43;;;13.70;99.90;;;;;;5061288;28;20051;-70
2022/10/22 08:34:29;;;;;;;18.10;5.60;;;13.80;99.90;;;;;;5057307;28;20513;-70
2022/10/22 08:36:55;;;;;;;15.60;5.43;;;13.90;99.90;;;;;;5064229;28;20040;-70
2022/10/22 08:39:21;;;;;;;16.73;5.72;;;14.10;99.90;;;;;;5059886;28;20033;-70
2022/10/22 08:42:24;;;;;;;12.27;5.03;;;14.00;99.90;;;;;;5060920;28;20041;-70
2022/10/22 08:45:14;;;;;;;15.93;5.18;;;14.10;99.90;;;;;;5071266;28;20036;-70
2022/10/22 08:47:52;;;;;;;10.27;5.10;;;14.20;99.90;;;;;;5060932;28;20044;-70
2022/10/22 08:50:35;;;;;;;16.63;5.13;;;14.30;99.90;;;;;;5090567;28;20761;-70
2022/10/22 08:53:06;;;;;;;13.73;5.32;;;14.40;99.90;;;;;;5064708;28;20036;-70
2022/10/22 08:55:34;;;;;;;11.02;4.63;;;14.40;99.90;;;;;;5062332;28;20119;-70
2022/10/22 08:58:16;;;;;;;12.98;4.88;;;14.50;99.90;;;;;;5061952;28;20041;-70
2022/10/22 09:00:46;;;;;;;18.10;5.32;;;14.50;99.90;;;;;;5063042;28;20047;-70
2022/10/22 09:03:27;;;;;;;16.95;4.38;;;14.60;99.90;;;;;;5042792;28;20509;-70
2022/10/22 09:06:17;;;;;;;;;;;14.60;99.90;;;;;;5062224;28;20048;-71
2022/10/22 09:08:45;;;;;;;13.77;4.50;;;14.70;99.90;;;;;;5039155;28;19998;-71
2022/10/22 09:11:11;;;;;;;14.52;4.57;;;14.80;99.90;;;;;;5047287;28;20041;-71
2022/10/22 09:13:39;;;;;;;14.20;4.82;;;14.80;99.90;;;;;;5055719;28;20041;-71
2022/10/22 09:16:19;;;;;;;18.45;4.50;;;14.90;99.90;;;;;;5063497;28;20123;-70
2022/10/22 09:19:02;;;;;;;16.90;4.43;;;14.90;99.90;;;;;;5080830;28;20471;-70
2022/10/22 09:21:39;;;;;;;14.43;4.55;;;15.00;99.90;;;;;;5057596;28;20501;-71
2022/10/22 09:24:12;;;;;;;10.90;4.00;;;15.00;99.90;;;;;;5048400;28;20131;-70
2022/10/22 09:26:39;;;;;;;12.23;3.97;;;15.10;99.90;;;;;;5064998;28;20071;-70
2022/10/22 09:29:12;;;;;;;15.50;4.50;;;15.10;99.90;;;;;;5059897;28;20437;-71
2022/10/22 09:31:38;;;;;;;15.52;4.00;;;15.20;99.90;;;;;;5059056;28;20070;-71
2022/10/22 09:34:06;;;;;;;12.82;4.00;;;15.20;99.90;;;;;;5052686;28;20037;-71
2022/10/22 09:36:32;;;;;;;15.07;3.65;;;15.20;99.90;;;;;;5059549;28;20049;-71
2022/10/22 09:38:58;;;;;;;12.20;3.60;;;15.20;99.90;;;;;;5061146;28;20041;-72
2022/10/22 09:41:30;;;;;;;18.38;4.18;;;15.20;99.90;;;;;;5086447;27;20425;-72
2022/10/22 09:43:58;;;;;;;14.05;3.88;;;15.20;99.90;;;;;;5086982;27;20045;-72
2022/10/22 09:46:27;;;;;;;14.05;4.35;;;15.20;99.90;;;;;;5053896;28;20040;-72
2022/10/22 09:49:09;;;;;;;14.50;4.10;;;15.20;99.90;;;;;;5059043;28;20068;-72
2022/10/22 09:51:45;;;;;;;13.93;4.28;;;15.30;99.90;;;;;;5065916;28;20063;-71
2022/10/22 09:54:21;;;;;;;13.70;3.95;;;15.30;99.90;;;;;;5060225;28;20040;-71
2022/10/22 09:57:10;;;;;;;10.60;4.00;;;15.20;99.90;;;;;;5040908;28;20408;-71
2022/10/22 09:59:37;;;;;;;13.55;4.10;;;15.30;99.90;;;;;;5056423;28;20048;-71
2022/10/22 10:02:11;;;;;;;18.60;4.35;;;15.30;99.90;;;;;;5055291;28;20072;-71
2022/10/22 10:04:46;;;;;;;18.08;3.90;;;15.30;99.90;;;;;;5057336;28;20210;-70
2022/10/22 10:07:16;;;;;;;12.50;3.95;;;15.30;99.90;;;;;;5066458;28;20460;-71
2022/10/22 10:09:42;;;;;;;15.80;4.20;;;15.30;99.90;;;;;;5065507;28;20062;-71
2022/10/22 10:12:17;;;;;;;18.08;4.03;;;15.40;99.90;;;;;;5051490;28;20462;-70
2022/10/22 10:14:50;;;;;;;15.93;4.72;;;15.40;99.90;;;;;;5038402;28;20051;-70
2022/10/22 10:17:47;;;;;;;14.02;4.18;;;15.40;99.90;;;;;;5053254;28;20557;-70
2022/10/22 10:20:54;;;;;;;15.68;4.75;;;15.40;99.90;;;;;;5044188;28;20042;-70
2022/10/22 10:24:07;;;;;;;16.67;4.80;;;15.40;99.90;;;;;;5037880;28;20707;-70
2022/10/22 10:26:41;;;;;;;14.88;4.60;;;15.40;99.90;;;;;;5023798;28;20064;-70
2022/10/22 10:29:13;;;;;;;14.25;5.07;;;15.40;99.90;;;;;;5052206;28;20057;-71
2022/10/22 10:31:45;;;;;;;13.10;4.22;;;15.50;99.90;;;;;;5086274;28;20350;-70
2022/10/22 10:34:41;;;;;;;14.27;5.22;;;15.40;99.90;;;;;;5078985;28;20499;-70
2022/10/22 10:37:23;;;;;;;14.35;4.28;;;15.50;99.90;;;;;;5063567;28;20048;-70
2022/10/22 10:40:07;;;;;;;16.10;4.32;;;15.50;99.90;;;;;;5053678;28;20497;-70
2022/10/22 10:42:40;;;;;;;15.95;4.70;;;15.50;99.90;;;;;;5035449;28;20551;-70
2022/10/22 10:45:23;;;;;;;17.00;5.15;;;15.50;99.90;;;;;;5051377;28;20053;-70
2022/10/22 10:48:07;;;;;;;12.57;4.15;;;15.50;99.90;;;;;;5051082;28;20777;-70
2022/10/22 10:51:00;;;;;;;17.63;4.75;;;15.50;99.90;;;;;;5073777;28;20097;-70
2022/10/22 10:53:54;;;;;;;11.15;4.07;;;15.50;99.90;;;;;;5047022;28;20082;-70
2022/10/22 10:56:29;;;;;;;15.15;4.10;;;15.50;99.90;;;;;;5059439;28;20470;-70
2022/10/22 10:59:09;;;;;;;13.13;3.90;;;15.50;99.90;;;;;;5057026;28;20497;-71
2022/10/22 11:01:37;;;;;;;13.98;4.35;;;15.60;99.90;;;;;;5038168;28;20048;-71
2022/10/22 11:04:16;;;;;;;16.00;4.03;;;15.50;99.90;;;;;;5059178;28;20048;-71
2022/10/22 11:06:44;;;;;;;12.00;4.75;;;15.50;99.90;;;;;;5062012;28;20121;-71
2022/10/22 11:09:31;;;;;;;11.18;3.92;;;15.50;99.90;;;;;;5060843;28;20064;-71
2022/10/22 11:12:03;;;;;;;13.73;3.53;;;15.50;99.90;;;;;;5054910;28;20053;-70
2022/10/22 11:14:37;;;;;;;10.20;3.95;;;15.50;99.90;;;;;;5054000;28;20083;-70
2022/10/22 11:17:09;;;;;;;10.77;3.90;;;15.40;99.90;;;;;;5052769;28;20045;-70
2022/10/22 11:19:42;;;;;;;13.90;4.63;;;15.40;99.90;;;;;;5054605;28;20042;-70
2022/10/22 11:22:33;;;;;;;9.57;4.35;;;15.50;99.90;;;;;;5031440;28;20045;-71
2022/10/22 11:25:12;;;;;;;11.30;4.57;;;15.50;99.90;;;;;;5075137;28;21099;-71
2022/10/22 11:27:55;;;;;;;11.88;5.43;;;15.60;99.90;;;;;;5053781;28;20118;-71
2022/10/22 11:30:24;;;;;;;13.40;5.68;;;15.60;99.90;;;;;;5050344;28;20048;-71
2022/10/22 11:32:58;;;;;;;14.40;5.38;;;15.60;99.90;;;;;;5046971;28;20117;-71
2022/10/22 11:35:29;;;;;;;13.32;5.68;;;15.70;99.90;;;;;;5057502;28;20391;-71
2022/10/22 11:37:56;;;;;;;16.15;5.63;;;15.70;99.90;;;;;;5056163;28;20049;-71
2022/10/22 11:40:28;;;;;;;12.75;5.53;;;15.70;99.90;;;;;;5042767;28;20033;-71
2022/10/22 11:42:57;;;;;;;13.13;5.22;;;15.70;99.90;;;;;;5065277;28;20044;-71
2022/10/22 11:45:23;;;;;;;19.45;5.82;;;15.70;99.90;;;;;;5056573;28;20063;-71
2022/10/22 11:48:09;;;;;;;11.75;5.80;;;15.70;99.90;;;;;;5059050;28;20036;-71
2022/10/22 11:50:43;;;;;;;16.10;6.28;;;15.60;99.90;;;;;;5060824;28;20051;-71
2022/10/22 11:53:12;;;;;;;13.68;6.00;;;15.60;99.90;;;;;;5061094;28;20320;-71
2022/10/22 11:55:50;;;;;;;13.43;6.10;;;15.60;99.90;;;;;;5044449;28;20049;-71
2022/10/22 11:58:28;;;;;;;12.88;6.20;;;15.60;99.90;;;;;;5055244;28;20104;-71
2022/10/22 12:00:55;;;;;;;11.48;5.38;;;15.60;99.90;;;;;;5056232;28;20054;-71
2022/10/22 12:03:27;;;;;;;16.10;5.70;;;15.60;99.90;;;;;;5083727;28;20080;-70
2022/10/22 12:06:11;;;;;;;12.95;5.97;;;15.60;99.90;;;;;;5058120;28;20040;-71
2022/10/22 12:08:52;;;;;;;14.23;6.25;;;15.70;99.90;;;;;;5065860;28;20067;-71
2022/10/22 12:11:48;;;;;;;16.98;6.03;;;15.70;99.90;;;;;;5063593;28;20040;-71
2022/10/22 12:14:27;;;;;;;16.52;5.80;;;15.70;99.90;;;;;;5042986;28;20063;-71
2022/10/22 12:17:09;;;;;;;12.30;5.65;;;15.70;99.90;;;;;;5044602;28;20413;-72
2022/10/22 12:19:39;;;;;;;16.77;5.85;;;15.70;99.90;;;;;;5063443;28;20472;-72
2022/10/22 12:22:05;;;;;;;11.70;4.93;;;15.80;99.90;;;;;;5065825;28;20056;-71
2022/10/22 12:24:35;;;;;;;13.68;5.03;;;15.70;99.90;;;;;;5064441;28;20405;-72
2022/10/22 12:27:02;;;;;;;12.75;5.22;;;15.70;99.90;;;;;;5048890;28;20393;-72
2022/10/22 12:29:31;;;;;;;15.52;5.55;;;15.80;99.90;;;;;;5083880;28;20086;-71
2022/10/22 12:32:01;;;;;;;12.05;5.53;;;15.80;99.90;;;;;;5066434;28;20512;-72
2022/10/22 12:34:28;;;;;;;14.00;4.75;;;15.70;99.90;;;;;;5072356;28;20562;-72
2022/10/22 12:36:54;;;;;;;10.27;3.72;;;15.80;99.90;;;;;;5066694;28;20048;-71
2022/10/22 12:39:24;;;;;;;11.90;3.63;;;15.70;99.90;;;;;;5065026;28;20028;-71
2022/10/22 12:41:52;;;;;;;10.27;3.67;;;15.80;99.90;;;;;;5065975;28;20474;-70
2022/10/22 12:44:18;;;;;;;17.98;3.92;;;15.70;99.90;;;;;;5062661;28;20116;-70
2022/10/22 12:46:47;;;;;;;9.48;3.33;;;15.70;99.90;;;;;;5064894;28;20170;-70
2022/10/22 12:49:31;;;;;;;14.77;3.30;;;15.70;99.90;;;;;;5066097;28;20047;-71
2022/10/22 12:52:01;;;;;;;17.83;2.80;;;15.70;99.90;;;;;;5050033;28;20118;-71
2022/10/22 12:54:30;;;;;;;13.93;3.00;;;15.70;99.90;;;;;;5085793;28;20053;-71
2022/10/22 12:56:57;;;;;;;10.13;2.78;;;15.70;99.90;;;;;;5101927;28;20040;-71